createdAt,value
2023-05-22T00:01:56.813Z,12.87
2023-05-22T00:04:23.754Z,12.70
2023-05-22T00:06:50.634Z,12.82
2023-05-22T00:09:17.757Z,13.21
2023-05-22T00:11:44.573Z,13.35
2023-05-22T00:14:13.440Z,13.28
2023-05-22T00:16:40.355Z,13.30
2023-05-22T00:19:13.323Z,13.31
2023-05-22T00:21:40.419Z,13.42
2023-05-22T00:24:07.499Z,13.37
2023-05-22T00:26:34.293Z,13.65
2023-05-22T00:29:01.444Z,13.70
2023-05-22T00:31:28.710Z,13.95
2023-05-22T00:33:55.535Z,14.10
2023-05-22T00:36:22.417Z,14.14
2023-05-22T00:38:49.104Z,13.98
2023-05-22T00:41:15.853Z,14.05
2023-05-22T00:43:42.849Z,14.06
2023-05-22T00:46:10.097Z,14.01
2023-05-22T00:48:36.830Z,13.94
2023-05-22T00:51:04.022Z,13.78
2023-05-22T00:53:31.763Z,13.74
2023-05-22T00:55:59.851Z,13.72
2023-05-22T00:58:27.240Z,13.37
2023-05-22T01:00:55.502Z,13.31
2023-05-22T01:03:26.895Z,13.20
2023-05-22T01:05:55.006Z,13.25
2023-05-22T01:08:22.714Z,13.29
2023-05-22T01:10:56.164Z,13.27
2023-05-22T01:13:25.716Z,13.21
2023-05-22T01:16:08.669Z,12.93
2023-05-22T01:18:45.230Z,12.79
2023-05-22T01:21:12.167Z,12.73
2023-05-22T01:24:16.202Z,12.58
2023-05-22T01:27:20.479Z,12.25
2023-05-22T01:29:56.068Z,12.11
2023-05-22T01:32:25.853Z,12.11
2023-05-22T01:34:57.001Z,12.20
2023-05-22T01:37:24.773Z,12.19
2023-05-22T01:39:52.526Z,12.22
2023-05-22T01:42:19.700Z,12.22
2023-05-22T01:44:49.024Z,12.20
2023-05-22T01:47:16.362Z,12.17
2023-05-22T01:49:43.408Z,11.99
2023-05-22T01:52:24.103Z,11.83
2023-05-22T01:55:03.682Z,11.77
2023-05-22T01:57:38.952Z,11.70
2023-05-22T02:00:10.124Z,11.60
2023-05-22T02:02:48.597Z,11.57
2023-05-22T02:05:18.903Z,11.60
2023-05-22T02:07:47.654Z,11.44
2023-05-22T02:10:17.129Z,11.33
2023-05-22T02:12:44.892Z,11.40
2023-05-22T02:15:12.060Z,11.45
2023-05-22T02:17:42.629Z,11.49
2023-05-22T02:20:17.242Z,11.38
2023-05-22T02:22:46.319Z,11.41
2023-05-22T02:25:17.720Z,11.39
2023-05-22T02:27:47.029Z,11.24
2023-05-22T02:30:14.615Z,11.21
2023-05-22T02:32:42.381Z,11.03
2023-05-22T02:35:12.268Z,10.96
2023-05-22T02:37:39.070Z,10.81
2023-05-22T02:40:07.465Z,10.85
2023-05-22T02:42:34.820Z,10.80
2023-05-22T02:45:02.827Z,10.83
2023-05-22T02:47:29.931Z,10.97
2023-05-22T02:49:58.088Z,10.86
2023-05-22T02:52:25.163Z,10.76
2023-05-22T02:54:52.084Z,10.77
2023-05-22T02:57:20.047Z,10.65
2023-05-22T02:59:46.820Z,10.58
2023-05-22T03:02:15.504Z,10.65
2023-05-22T03:04:43.250Z,10.68
2023-05-22T03:07:10.492Z,10.34
2023-05-22T03:09:37.382Z,10.38
2023-05-22T03:12:07.993Z,10.38
2023-05-22T03:14:35.274Z,10.47
2023-05-22T03:17:02.269Z,10.48
2023-05-22T03:19:29.891Z,10.58
2023-05-22T03:21:56.619Z,10.64
2023-05-22T03:24:23.442Z,10.82
2023-05-22T03:26:50.306Z,10.82
2023-05-22T03:29:24.051Z,10.77
2023-05-22T03:31:50.850Z,10.69
2023-05-22T03:34:17.549Z,10.72
2023-05-22T03:36:46.899Z,10.85
2023-05-22T03:39:15.767Z,10.89
2023-05-22T03:41:51.133Z,10.96
2023-05-22T03:44:18.342Z,10.98
2023-05-22T03:46:46.462Z,10.96
2023-05-22T03:49:13.178Z,11.06
2023-05-22T03:51:39.933Z,11.15
2023-05-22T03:54:06.749Z,11.14
2023-05-22T03:56:33.480Z,11.21
2023-05-22T03:59:00.590Z,11.21
2023-05-22T04:01:27.359Z,11.20
2023-05-22T04:03:54.192Z,11.01
2023-05-22T04:06:23.573Z,11.15
2023-05-22T04:08:50.275Z,11.15
2023-05-22T04:11:17.017Z,11.29
2023-05-22T04:13:43.748Z,11.39
2023-05-22T04:16:10.716Z,11.45
2023-05-22T04:18:37.836Z,11.55
2023-05-22T04:21:08.146Z,11.62
2023-05-22T04:23:38.717Z,11.75
2023-05-22T04:26:08.909Z,11.83
2023-05-22T04:28:36.089Z,11.88
2023-05-22T04:31:06.566Z,11.93
2023-05-22T04:33:34.612Z,12.08
2023-05-22T04:36:02.450Z,12.21
2023-05-22T04:38:29.418Z,12.30
2023-05-22T04:40:57.072Z,12.41
2023-05-22T04:43:26.726Z,12.48
2023-05-22T04:45:54.848Z,12.60
2023-05-22T04:48:22.537Z,12.64
2023-05-22T04:50:54.299Z,12.68
2023-05-22T04:53:21.224Z,12.68
2023-05-22T04:55:47.922Z,12.77
2023-05-22T04:58:15.261Z,12.94
2023-05-22T05:00:42.337Z,13.08
2023-05-22T05:03:11.749Z,12.97
2023-05-22T05:05:41.123Z,13.10
2023-05-22T05:08:08.175Z,13.18
2023-05-22T05:10:34.900Z,13.30
2023-05-22T05:13:02.316Z,13.42
2023-05-22T05:15:29.608Z,13.56
2023-05-22T05:17:56.541Z,13.66
2023-05-22T05:20:23.463Z,13.73
2023-05-22T05:22:51.108Z,13.78
2023-05-22T05:25:18.004Z,13.87
2023-05-22T05:27:45.052Z,13.98
2023-05-22T05:30:12.290Z,14.07
2023-05-22T05:33:06.487Z,14.08
2023-05-22T05:35:56.308Z,14.19
2023-05-22T05:38:24.920Z,14.33
2023-05-22T05:40:52.827Z,14.43
2023-05-22T05:43:20.762Z,14.50
2023-05-22T05:45:49.491Z,14.61
2023-05-22T05:48:16.817Z,14.51
2023-05-22T05:50:45.774Z,14.46
2023-05-22T05:53:12.816Z,14.69
2023-05-22T05:55:44.116Z,14.69
2023-05-22T05:58:11.096Z,14.75
2023-05-22T06:00:48.047Z,14.88
2023-05-22T06:03:14.928Z,15.05
2023-05-22T06:06:11.152Z,15.22
2023-05-22T06:08:57.203Z,15.36
2023-05-22T06:11:30.225Z,15.50
2023-05-22T06:13:57.195Z,15.88
2023-05-22T06:16:24.282Z,16.12
2023-05-22T06:18:52.691Z,16.37
2023-05-22T06:21:22.831Z,16.09
2023-05-22T06:23:49.901Z,16.41
2023-05-22T06:26:17.640Z,16.83
2023-05-22T06:28:45.692Z,16.70
2023-05-22T06:31:12.776Z,16.85
2023-05-22T06:33:43.643Z,16.95
2023-05-22T06:36:11.515Z,17.17
2023-05-22T06:38:39.500Z,17.31
2023-05-22T06:41:13.476Z,17.13
2023-05-22T06:43:40.307Z,17.09
2023-05-22T06:46:12.352Z,16.99
2023-05-22T06:48:50.219Z,17.23
2023-05-22T06:51:24.340Z,17.16
2023-05-22T06:53:54.543Z,17.47
2023-05-22T06:56:25.408Z,17.65
2023-05-22T06:58:59.252Z,17.78
2023-05-22T07:01:46.600Z,18.03
2023-05-22T07:04:17.428Z,17.85
2023-05-22T07:06:54.640Z,18.21
2023-05-22T07:09:21.733Z,18.76
2023-05-22T07:11:49.120Z,18.37
2023-05-22T07:14:18.257Z,18.45
2023-05-22T07:16:46.230Z,18.31
2023-05-22T07:19:16.775Z,18.34
2023-05-22T07:21:43.597Z,18.25
2023-05-22T07:24:11.927Z,18.34
2023-05-22T07:26:46.410Z,18.18
2023-05-22T07:29:17.024Z,18.26
2023-05-22T07:31:47.476Z,18.20
2023-05-22T07:34:14.527Z,18.09
2023-05-22T07:36:42.123Z,18.27
2023-05-22T07:39:09.997Z,18.46
2023-05-22T07:41:40.184Z,18.59
2023-05-22T07:44:09.280Z,18.77
2023-05-22T07:46:38.261Z,18.67
2023-05-22T07:49:20.435Z,18.85
2023-05-22T07:51:47.911Z,19.33
2023-05-22T07:54:16.304Z,19.62
2023-05-22T07:56:45.994Z,19.47
2023-05-22T07:59:14.778Z,19.69
2023-05-22T08:01:44.619Z,19.88
2023-05-22T08:04:11.590Z,19.99
2023-05-22T08:06:39.973Z,19.93
2023-05-22T08:09:06.756Z,20.13
2023-05-22T08:11:34.350Z,20.08
2023-05-22T08:14:01.120Z,20.13
2023-05-22T08:16:27.862Z,20.33
2023-05-22T08:18:54.619Z,20.37
2023-05-22T08:21:21.365Z,20.54
2023-05-22T08:23:48.046Z,20.62
2023-05-22T08:26:15.168Z,20.66
2023-05-22T08:28:44.865Z,20.45
2023-05-22T08:31:12.223Z,20.54
2023-05-22T08:33:39.846Z,20.63
2023-05-22T08:36:06.776Z,20.75
2023-05-22T08:38:33.668Z,20.96
2023-05-22T08:41:00.407Z,21.11
2023-05-22T08:43:28.675Z,21.29
2023-05-22T08:46:06.054Z,21.15
2023-05-22T08:48:33.770Z,21.24
2023-05-22T08:51:05.941Z,21.21
2023-05-22T08:53:37.535Z,21.39
2023-05-22T08:56:08.632Z,21.49
2023-05-22T08:58:36.839Z,21.60
2023-05-22T09:01:05.548Z,21.70
2023-05-22T09:03:33.195Z,21.83
2023-05-22T09:06:01.202Z,21.82
2023-05-22T09:08:31.380Z,21.90
2023-05-22T09:10:58.541Z,21.95
2023-05-22T09:13:28.425Z,22.00
2023-05-22T09:15:59.618Z,22.22
2023-05-22T09:18:30.252Z,22.45
2023-05-22T09:20:58.086Z,22.26
2023-05-22T09:23:28.345Z,22.47
2023-05-22T09:25:57.160Z,22.69
2023-05-22T09:28:24.735Z,22.77
2023-05-22T09:30:55.594Z,22.94
2023-05-22T09:33:23.438Z,23.02
2023-05-22T09:35:53.966Z,23.15
2023-05-22T09:38:28.493Z,23.03
2023-05-22T09:40:56.053Z,22.81
2023-05-22T09:43:25.455Z,22.97
2023-05-22T09:46:02.495Z,22.99
2023-05-22T09:48:29.365Z,23.18
2023-05-22T09:50:59.865Z,23.19
2023-05-22T09:53:29.058Z,23.37
2023-05-22T09:56:00.396Z,23.50
2023-05-22T09:58:31.077Z,23.60
2023-05-22T10:00:59.297Z,23.65
2023-05-22T10:03:27.203Z,23.70
2023-05-22T10:05:56.844Z,23.79
2023-05-22T10:08:27.697Z,23.87
2023-05-22T10:10:55.081Z,23.78
2023-05-22T10:13:22.122Z,24.06
2023-05-22T10:15:50.560Z,23.86
2023-05-22T10:18:17.722Z,24.06
2023-05-22T10:20:47.098Z,24.34
2023-05-22T10:23:16.646Z,24.63
2023-05-22T10:25:44.727Z,24.57
2023-05-22T10:28:16.482Z,24.49
2023-05-22T10:31:03.604Z,24.42
2023-05-22T10:34:01.081Z,24.76
2023-05-22T10:36:50.901Z,24.95
2023-05-22T10:39:26.347Z,24.94
2023-05-22T10:41:53.800Z,25.07
2023-05-22T10:44:22.445Z,24.78
2023-05-22T10:46:52.674Z,24.74
2023-05-22T10:49:26.784Z,24.73
2023-05-22T10:51:57.217Z,24.44
2023-05-22T10:54:43.237Z,24.56
2023-05-22T10:57:13.753Z,24.91
2023-05-22T10:59:40.604Z,24.80
2023-05-22T11:02:22.676Z,25.01
2023-05-22T11:04:49.714Z,24.97
2023-05-22T11:07:16.629Z,25.08
2023-05-22T11:09:49.848Z,25.36
2023-05-22T11:12:16.901Z,25.57
2023-05-22T11:14:51.989Z,25.19
2023-05-22T11:17:43.103Z,25.45
2023-05-22T11:20:13.789Z,25.38
2023-05-22T11:22:46.690Z,24.98
2023-05-22T11:25:18.510Z,25.27
2023-05-22T11:27:47.449Z,25.46
2023-05-22T11:30:15.732Z,25.63
2023-05-22T11:32:45.148Z,25.40
2023-05-22T11:35:19.466Z,25.31
2023-05-22T11:37:47.509Z,25.54
2023-05-22T11:40:16.964Z,25.62
2023-05-22T11:42:44.318Z,25.27
2023-05-22T11:45:11.713Z,25.05
2023-05-22T11:47:39.228Z,24.79
2023-05-22T11:50:09.067Z,24.95
2023-05-22T11:52:37.322Z,24.89
2023-05-22T11:55:05.633Z,25.18
2023-05-22T11:57:32.794Z,25.40
2023-05-22T11:59:59.656Z,25.66
2023-05-22T12:02:26.905Z,25.36
2023-05-22T12:04:55.656Z,25.28
2023-05-22T12:07:23.002Z,25.27
2023-05-22T12:09:50.102Z,24.99
2023-05-22T12:12:16.892Z,24.74
2023-05-22T12:14:47.375Z,24.89
2023-05-22T12:17:15.084Z,25.03
2023-05-22T12:19:43.161Z,25.44
2023-05-22T12:22:10.467Z,25.36
2023-05-22T12:24:41.018Z,25.26
2023-05-22T12:27:10.498Z,25.48
2023-05-22T12:29:38.372Z,25.47
2023-05-22T12:32:11.602Z,25.54
2023-05-22T12:34:46.445Z,25.31
2023-05-22T12:37:25.075Z,25.34
2023-05-22T12:39:59.089Z,25.27
2023-05-22T12:42:26.482Z,25.09
2023-05-22T12:44:55.035Z,25.17
2023-05-22T12:47:23.548Z,25.24
2023-05-22T12:49:51.087Z,25.25
2023-05-22T12:52:18.230Z,25.29
2023-05-22T12:54:45.055Z,24.93
2023-05-22T12:57:12.478Z,24.60
2023-05-22T12:59:39.306Z,24.77
2023-05-22T13:02:06.518Z,25.12
2023-05-22T13:04:33.329Z,25.31
2023-05-22T13:07:00.235Z,25.42
2023-05-22T13:09:27.079Z,25.35
2023-05-22T13:11:53.893Z,25.32
2023-05-22T13:14:20.635Z,25.39
2023-05-22T13:16:47.428Z,25.39
2023-05-22T13:19:14.217Z,25.69
2023-05-22T13:21:41.052Z,25.82
2023-05-22T13:24:08.525Z,25.94
2023-05-22T13:26:35.313Z,25.68
2023-05-22T13:29:01.990Z,25.57
2023-05-22T13:31:29.032Z,25.59
2023-05-22T13:33:55.980Z,25.50
2023-05-22T13:36:22.804Z,25.74
2023-05-22T13:38:49.646Z,25.87
2023-05-22T13:41:17.848Z,25.46
2023-05-22T13:43:44.744Z,25.28
2023-05-22T13:46:11.621Z,25.36
2023-05-22T13:48:39.074Z,25.47
2023-05-22T13:51:06.480Z,25.53
2023-05-22T13:53:33.322Z,25.70
2023-05-22T13:56:00.017Z,25.68
2023-05-22T13:58:26.883Z,25.65
2023-05-22T14:00:53.821Z,25.81
2023-05-22T14:03:20.744Z,25.63
2023-05-22T14:05:48.575Z,25.45
2023-05-22T14:08:15.332Z,25.56
2023-05-22T14:10:42.144Z,25.62
2023-05-22T14:13:09.174Z,25.76
2023-05-22T14:15:36.010Z,25.78
2023-05-22T14:18:02.818Z,25.84
2023-05-22T14:20:29.600Z,25.89
2023-05-22T14:22:58.399Z,26.03
2023-05-22T14:25:28.349Z,26.19
2023-05-22T14:27:55.173Z,26.11
2023-05-22T14:30:22.159Z,25.97
2023-05-22T14:32:49.145Z,25.80
2023-05-22T14:35:16.776Z,25.76
2023-05-22T14:37:44.078Z,25.44
2023-05-22T14:40:10.990Z,25.42
2023-05-22T14:42:38.026Z,25.54
2023-05-22T14:45:05.430Z,25.53
2023-05-22T14:47:32.302Z,25.57
2023-05-22T14:50:14.136Z,25.63
2023-05-22T14:52:44.992Z,25.64
2023-05-22T14:55:11.684Z,25.42
2023-05-22T14:57:38.355Z,25.49
2023-05-22T15:00:09.804Z,25.59
2023-05-22T15:02:37.856Z,25.46
2023-05-22T15:05:05.530Z,25.55
2023-05-22T15:07:43.297Z,25.41
2023-05-22T15:10:12.205Z,25.44
2023-05-22T15:12:38.982Z,25.36
2023-05-22T15:15:06.236Z,25.42
2023-05-22T15:17:33.056Z,25.51
2023-05-22T15:19:59.855Z,25.37
2023-05-22T15:22:26.493Z,25.21
2023-05-22T15:25:20.031Z,25.27
2023-05-22T15:27:46.815Z,25.21
2023-05-22T15:30:15.036Z,25.34
2023-05-22T15:32:41.797Z,25.20
2023-05-22T15:35:09.403Z,25.13
2023-05-22T15:37:36.757Z,25.17
2023-05-22T15:40:04.525Z,25.08
2023-05-22T15:42:31.421Z,25.12
2023-05-22T15:44:59.929Z,25.24
2023-05-22T15:47:26.774Z,25.20
2023-05-22T15:49:53.524Z,25.20
2023-05-22T15:52:22.683Z,25.08
2023-05-22T15:54:49.475Z,25.13
2023-05-22T15:57:16.616Z,25.09
2023-05-22T15:59:43.463Z,24.97
2023-05-22T16:02:10.173Z,24.83
2023-05-22T16:04:36.980Z,24.88
2023-05-22T16:07:03.905Z,24.84
2023-05-22T16:09:32.676Z,24.73
2023-05-22T16:11:59.721Z,24.74
2023-05-22T16:14:26.418Z,24.63
2023-05-22T16:16:53.086Z,24.73
2023-05-22T16:19:20.038Z,24.71
2023-05-22T16:21:46.805Z,24.76
2023-05-22T16:24:13.631Z,24.87
2023-05-22T16:26:40.595Z,24.91
2023-05-22T16:29:11.337Z,24.85
2023-05-22T16:31:38.220Z,24.84
2023-05-22T16:34:05.854Z,24.81
2023-05-22T16:36:32.831Z,24.86
2023-05-22T16:38:59.517Z,24.91
2023-05-22T16:41:26.926Z,24.89
2023-05-22T16:43:54.013Z,24.74
2023-05-22T16:46:20.913Z,24.62
2023-05-22T16:48:48.722Z,24.65
2023-05-22T16:51:15.381Z,24.51
2023-05-22T16:53:42.235Z,24.51
2023-05-22T16:56:09.054Z,24.33
2023-05-22T16:58:35.982Z,24.29
2023-05-22T17:01:02.951Z,24.23
2023-05-22T17:03:29.763Z,24.23
2023-05-22T17:05:56.980Z,24.24
2023-05-22T17:08:23.792Z,24.26
2023-05-22T17:10:50.522Z,24.22
2023-05-22T17:13:20.859Z,24.28
2023-05-22T17:15:51.839Z,24.20
2023-05-22T17:18:19.925Z,24.23
2023-05-22T17:20:51.422Z,24.22
2023-05-22T17:23:18.414Z,24.24
2023-05-22T17:25:48.386Z,24.23
2023-05-22T17:28:15.409Z,24.12
2023-05-22T17:30:44.224Z,23.99
2023-05-22T17:33:11.306Z,23.76
2023-05-22T17:35:38.497Z,23.56
2023-05-22T17:38:07.340Z,23.44
2023-05-22T17:40:43.969Z,23.42
2023-05-22T17:43:11.390Z,23.23
2023-05-22T17:45:38.095Z,23.25
2023-05-22T17:48:06.229Z,23.17
2023-05-22T17:50:32.950Z,23.06
2023-05-22T17:52:59.691Z,23.08
2023-05-22T17:55:26.394Z,23.10
2023-05-22T17:57:53.436Z,22.96
2023-05-22T18:00:21.052Z,22.91
2023-05-22T18:02:47.828Z,22.59
2023-05-22T18:05:14.896Z,22.55
2023-05-22T18:07:41.709Z,22.40
2023-05-22T18:10:09.405Z,22.33
2023-05-22T18:12:38.139Z,22.24
2023-05-22T18:15:08.524Z,22.05
2023-05-22T18:17:35.424Z,21.85
2023-05-22T18:20:02.174Z,21.66
2023-05-22T18:22:28.929Z,21.50
2023-05-22T18:24:56.273Z,21.39
2023-05-22T18:27:23.163Z,21.23
2023-05-22T18:29:51.649Z,21.12
2023-05-22T18:32:18.434Z,20.97
2023-05-22T18:34:45.201Z,20.87
2023-05-22T18:37:11.922Z,20.68
2023-05-22T18:39:38.685Z,20.59
2023-05-22T18:42:05.881Z,20.56
2023-05-22T18:44:33.085Z,20.48
2023-05-22T18:46:59.848Z,20.41
2023-05-22T18:49:26.652Z,20.29
2023-05-22T18:51:53.372Z,20.18
2023-05-22T18:54:20.132Z,20.05
2023-05-22T18:56:47.562Z,19.87
2023-05-22T18:59:14.520Z,19.72
2023-05-22T19:01:41.294Z,19.63
2023-05-22T19:04:08.652Z,19.47
2023-05-22T19:06:36.112Z,19.43
2023-05-22T19:09:03.457Z,19.39
2023-05-22T19:11:33.500Z,19.35
2023-05-22T19:14:00.197Z,19.24
2023-05-22T19:16:27.162Z,19.20
2023-05-22T19:18:54.023Z,19.14
2023-05-22T19:21:20.759Z,18.85
2023-05-22T19:23:48.384Z,18.76
2023-05-22T19:26:15.085Z,18.62
2023-05-22T19:28:41.924Z,18.42
2023-05-22T19:31:08.846Z,18.32
2023-05-22T19:33:35.581Z,18.26
2023-05-22T19:36:02.597Z,18.27
2023-05-22T19:38:31.081Z,18.15
2023-05-22T19:40:57.874Z,18.15
2023-05-22T19:43:24.832Z,18.06
2023-05-22T19:45:51.512Z,17.92
2023-05-22T19:48:18.227Z,17.79
2023-05-22T19:50:45.339Z,17.61
2023-05-22T19:53:12.154Z,17.70
2023-05-22T19:55:38.804Z,17.75
2023-05-22T19:58:05.591Z,17.47
2023-05-22T20:00:33.398Z,17.30
2023-05-22T20:03:00.380Z,17.24
2023-05-22T20:05:27.471Z,17.28
2023-05-22T20:07:54.500Z,17.12
2023-05-22T20:10:21.741Z,16.82
2023-05-22T20:12:48.593Z,16.61
2023-05-22T20:15:15.497Z,16.66
2023-05-22T20:17:42.556Z,16.58
2023-05-22T20:20:09.848Z,16.57
2023-05-22T20:22:36.610Z,16.68
2023-05-22T20:25:05.463Z,16.76
2023-05-22T20:27:32.100Z,16.58
2023-05-22T20:30:00.194Z,16.43
2023-05-22T20:32:27.301Z,16.40
2023-05-22T20:34:55.391Z,16.41
2023-05-22T20:37:22.364Z,16.50
2023-05-22T20:39:50.036Z,16.50
2023-05-22T20:42:17.611Z,16.27
2023-05-22T20:44:44.680Z,16.25
2023-05-22T20:47:11.886Z,16.25
2023-05-22T20:49:38.988Z,16.23
2023-05-22T20:52:05.830Z,16.33
2023-05-22T20:54:34.728Z,16.36
2023-05-22T20:57:02.146Z,16.24
2023-05-22T20:59:29.225Z,16.02
2023-05-22T21:01:57.135Z,15.97
2023-05-22T21:04:24.493Z,15.93
2023-05-22T21:06:51.399Z,15.83
2023-05-22T21:09:18.178Z,15.73
2023-05-22T21:11:45.144Z,15.80
2023-05-22T21:14:11.999Z,15.80
2023-05-22T21:16:40.191Z,15.83
2023-05-22T21:19:07.449Z,15.70
2023-05-22T21:21:36.201Z,15.57
2023-05-22T21:24:02.944Z,15.39
2023-05-22T21:26:29.647Z,15.27
2023-05-22T21:28:56.533Z,15.11
2023-05-22T21:31:23.343Z,15.14
2023-05-22T21:33:50.069Z,15.20
2023-05-22T21:36:16.760Z,15.12
2023-05-22T21:38:44.022Z,14.92
2023-05-22T21:41:11.818Z,14.99
2023-05-22T21:43:38.855Z,14.89
2023-05-22T21:46:05.744Z,14.80
2023-05-22T21:48:32.525Z,14.89
2023-05-22T21:50:59.235Z,14.99
2023-05-22T21:53:25.998Z,15.01
2023-05-22T21:55:52.724Z,15.06
2023-05-22T21:58:19.489Z,14.71
2023-05-22T22:00:46.306Z,14.52
2023-05-22T22:03:13.247Z,14.46
2023-05-22T22:05:40.478Z,14.50
2023-05-22T22:08:07.279Z,14.59
2023-05-22T22:10:34.073Z,14.74
2023-05-22T22:13:01.433Z,15.04
2023-05-22T22:15:28.215Z,14.98
2023-05-22T22:17:59.469Z,14.76
2023-05-22T22:20:42.466Z,14.60
2023-05-22T22:23:11.435Z,14.55
2023-05-22T22:25:39.256Z,14.50
2023-05-22T22:28:07.585Z,14.48
2023-05-22T22:30:35.345Z,14.47
2023-05-22T22:33:02.621Z,14.41
2023-05-22T22:35:29.494Z,14.36
2023-05-22T22:37:56.311Z,14.42
2023-05-22T22:40:24.336Z,14.47
2023-05-22T22:42:53.063Z,14.48
2023-05-22T22:45:19.927Z,14.44
2023-05-22T22:47:47.423Z,14.43
2023-05-22T22:50:14.274Z,14.44
2023-05-22T22:52:45.705Z,14.48
2023-05-22T22:55:13.453Z,14.46
2023-05-22T22:57:43.247Z,14.34
2023-05-22T23:00:13.450Z,14.25
2023-05-22T23:02:40.758Z,14.22
2023-05-22T23:05:08.142Z,14.23
2023-05-22T23:07:34.905Z,14.21
2023-05-22T23:10:01.909Z,14.19
2023-05-22T23:12:28.700Z,14.17
2023-05-22T23:14:55.622Z,14.23
2023-05-22T23:17:22.299Z,14.25
2023-05-22T23:19:49.060Z,14.19
2023-05-22T23:22:15.719Z,14.06
2023-05-22T23:24:42.345Z,14.02
2023-05-22T23:27:09.036Z,14.07
2023-05-22T23:29:35.749Z,14.10
2023-05-22T23:32:02.618Z,14.11
2023-05-22T23:34:29.477Z,14.13
2023-05-22T23:36:56.297Z,14.18
2023-05-22T23:39:23.162Z,14.03
2023-05-22T23:41:49.946Z,13.92
2023-05-22T23:44:16.728Z,13.87
2023-05-22T23:46:44.031Z,13.81
2023-05-22T23:49:10.959Z,13.79
2023-05-22T23:51:37.769Z,13.82
2023-05-22T23:54:04.582Z,13.88
2023-05-22T23:56:31.306Z,13.93
2023-05-22T23:58:58.042Z,13.87
